createdAt,value
2017-12-21T00:01:28.449Z,14.13
2017-12-21T00:03:56.488Z,13.57
2017-12-21T00:06:25.098Z,13.17
2017-12-21T00:08:52.735Z,14.03
2017-12-21T00:11:21.710Z,13.83
2017-12-21T00:13:50.013Z,14.80
2017-12-21T00:16:17.564Z,12.83
2017-12-21T00:18:45.093Z,14.10
2017-12-21T00:21:13.407Z,13.93
2017-12-21T00:23:40.933Z,12.93
2017-12-21T00:26:09.249Z,11.90
2017-12-21T00:28:36.773Z,13.63
2017-12-21T00:31:05.102Z,13.63
2017-12-21T00:33:32.626Z,12.43
2017-12-21T00:36:00.160Z,12.77
2017-12-21T00:38:27.963Z,12.07
2017-12-21T00:40:55.652Z,12.33
2017-12-21T00:43:23.708Z,11.73
2017-12-21T00:46:03.209Z,9.97
2017-12-21T00:48:31.642Z,10.70
2017-12-21T00:50:59.268Z,9.90
2017-12-21T00:53:27.048Z,9.50
2017-12-21T00:55:55.346Z,10.07
2017-12-21T00:58:23.101Z,9.13
2017-12-21T01:00:50.660Z,8.97
2017-12-21T01:03:18.179Z,9.00
2017-12-21T01:05:45.708Z,9.07
2017-12-21T01:08:13.995Z,9.60
2017-12-21T01:10:42.401Z,10.13
2017-12-21T01:13:10.265Z,9.70
2017-12-21T01:15:37.773Z,9.23
2017-12-21T01:18:06.050Z,9.40
2017-12-21T01:20:33.564Z,10.20
2017-12-21T01:23:01.076Z,9.87
2017-12-21T01:25:28.571Z,10.00
2017-12-21T01:27:56.869Z,11.03
2017-12-21T01:30:24.383Z,9.87
2017-12-21T01:32:51.888Z,10.43
2017-12-21T01:35:19.403Z,11.77
2017-12-21T01:37:46.908Z,11.10
2017-12-21T01:40:14.423Z,11.00
2017-12-21T01:42:42.680Z,11.83
2017-12-21T01:45:10.204Z,10.97
2017-12-21T01:47:37.705Z,12.27
2017-12-21T01:50:05.207Z,13.03
2017-12-21T01:52:32.713Z,14.63
2017-12-21T01:55:00.221Z,15.00
2017-12-21T01:57:27.747Z,15.40
2017-12-21T01:59:55.247Z,15.03
2017-12-21T02:02:22.767Z,16.80
2017-12-21T02:04:51.043Z,15.70
2017-12-21T02:07:18.543Z,17.70
2017-12-21T02:09:46.055Z,17.40
2017-12-21T02:12:13.543Z,16.80
2017-12-21T02:14:41.070Z,17.33
2017-12-21T02:17:08.563Z,17.50
2017-12-21T02:19:36.095Z,17.70
2017-12-21T02:22:03.594Z,17.60
2017-12-21T02:24:31.099Z,17.87
2017-12-21T02:26:58.619Z,17.70
2017-12-21T02:29:26.126Z,17.80
2017-12-21T02:31:53.669Z,18.67
2017-12-21T02:34:21.171Z,17.63
2017-12-21T02:36:48.675Z,18.03
2017-12-21T02:39:16.967Z,18.73
2017-12-21T02:41:45.231Z,19.80
2017-12-21T02:44:12.739Z,18.37
2017-12-21T02:46:40.280Z,19.00
2017-12-21T02:49:07.800Z,17.83
2017-12-21T02:51:35.291Z,18.17
2017-12-21T02:54:02.812Z,17.17
2017-12-21T02:56:31.080Z,18.13
2017-12-21T02:58:58.578Z,15.97
2017-12-21T03:01:26.131Z,18.17
2017-12-21T03:03:54.399Z,17.80
2017-12-21T03:06:21.968Z,16.97
2017-12-21T03:08:49.490Z,17.43
2017-12-21T03:11:17.003Z,16.87
2017-12-21T03:13:44.523Z,17.30
2017-12-21T03:16:12.055Z,16.57
2017-12-21T03:18:39.551Z,16.37
2017-12-21T03:21:07.819Z,16.77
2017-12-21T03:23:35.357Z,15.20
2017-12-21T03:26:02.881Z,14.60
2017-12-21T03:28:31.151Z,16.07
2017-12-21T03:30:58.668Z,16.60
2017-12-21T03:33:26.177Z,16.67
2017-12-21T03:35:53.751Z,16.20
2017-12-21T03:38:21.275Z,14.70
2017-12-21T03:40:48.767Z,15.37
2017-12-21T03:43:16.811Z,15.27
2017-12-21T03:45:44.359Z,15.17
2017-12-21T03:48:11.858Z,15.07
2017-12-21T03:50:39.362Z,13.27
2017-12-21T03:53:06.882Z,14.10
2017-12-21T03:55:35.157Z,13.07
2017-12-21T03:58:02.962Z,15.43
2017-12-21T04:00:30.479Z,15.03
2017-12-21T04:02:57.983Z,14.47
2017-12-21T04:05:26.259Z,15.70
2017-12-21T04:07:53.768Z,15.07
2017-12-21T04:10:21.507Z,16.13
2017-12-21T04:12:49.011Z,15.57
2017-12-21T04:15:16.507Z,16.47
2017-12-21T04:17:44.018Z,17.10
2017-12-21T04:20:11.516Z,16.00
2017-12-21T04:22:39.014Z,16.73
2017-12-21T04:25:06.526Z,18.30
2017-12-21T04:27:34.031Z,16.53
2017-12-21T04:30:01.543Z,17.10
2017-12-21T04:32:29.163Z,17.87
2017-12-21T04:34:57.428Z,19.20
2017-12-21T04:37:24.927Z,18.43
2017-12-21T04:39:53.219Z,19.80
2017-12-21T04:42:20.728Z,21.83
2017-12-21T04:44:48.248Z,19.87
2017-12-21T04:47:15.751Z,20.23
2017-12-21T04:49:43.267Z,20.27
2017-12-21T04:52:10.792Z,20.57
2017-12-21T04:54:38.671Z,20.63
2017-12-21T04:57:06.201Z,24.30
2017-12-21T04:59:33.712Z,24.87
2017-12-21T05:02:01.216Z,26.70
2017-12-21T05:04:28.741Z,24.70
2017-12-21T05:06:56.240Z,28.20
2017-12-21T05:09:23.770Z,28.90
2017-12-21T05:11:52.044Z,28.10
2017-12-21T05:14:20.311Z,28.90
2017-12-21T05:16:47.855Z,29.13
2017-12-21T05:19:15.363Z,32.03
2017-12-21T05:21:42.914Z,29.03
2017-12-21T05:24:10.414Z,31.73
2017-12-21T05:26:37.926Z,31.23
2017-12-21T05:29:05.444Z,33.10
2017-12-21T05:31:32.943Z,31.40
2017-12-21T05:34:00.478Z,31.83
2017-12-21T05:36:27.983Z,30.73
2017-12-21T05:38:56.246Z,31.83
2017-12-21T05:41:23.762Z,30.63
2017-12-21T05:43:51.259Z,27.03
2017-12-21T05:46:18.805Z,28.07
2017-12-21T05:48:46.334Z,27.47
2017-12-21T05:51:13.841Z,25.20
2017-12-21T05:53:41.386Z,24.57
2017-12-21T05:56:09.675Z,24.03
2017-12-21T05:58:37.983Z,23.37
2017-12-21T06:01:05.489Z,21.57
2017-12-21T06:03:32.995Z,22.17
2017-12-21T06:06:00.531Z,21.10
2017-12-21T06:08:28.059Z,19.67
2017-12-21T06:10:55.604Z,19.37
2017-12-21T06:13:26.580Z,19.70
2017-12-21T06:15:54.880Z,20.17
2017-12-21T06:18:22.397Z,20.53
2017-12-21T06:20:49.899Z,20.20
2017-12-21T06:23:18.178Z,18.87
2017-12-21T06:25:45.676Z,18.93
2017-12-21T06:28:13.236Z,19.77
2017-12-21T06:30:41.507Z,17.90
2017-12-21T06:33:09.007Z,19.40
2017-12-21T06:35:36.531Z,19.27
2017-12-21T06:38:04.024Z,17.53
2017-12-21T06:40:31.538Z,18.50
2017-12-21T06:42:59.030Z,17.93
2017-12-21T06:45:26.531Z,18.33
2017-12-21T06:47:54.051Z,18.63
2017-12-21T06:50:24.979Z,18.53
2017-12-21T06:52:52.596Z,17.63
2017-12-21T06:55:20.099Z,17.63
2017-12-21T06:57:48.364Z,17.60
2017-12-21T07:00:16.111Z,14.87
2017-12-21T07:02:43.619Z,15.30
2017-12-21T07:05:11.144Z,14.50
2017-12-21T07:07:38.644Z,14.53
2017-12-21T07:10:06.143Z,16.40
2017-12-21T07:12:33.666Z,15.53
2017-12-21T07:15:01.172Z,14.37
2017-12-21T07:17:28.723Z,13.53
2017-12-21T07:19:56.223Z,13.43
2017-12-21T07:22:23.759Z,12.80
2017-12-21T07:24:51.272Z,12.00
2017-12-21T07:27:19.536Z,12.77
2017-12-21T07:29:47.071Z,12.37
2017-12-21T07:32:14.575Z,12.60
2017-12-21T07:34:42.842Z,11.83
2017-12-21T07:37:10.357Z,12.03
2017-12-21T07:39:37.855Z,12.07
2017-12-21T07:42:05.399Z,11.70
2017-12-21T07:44:32.902Z,12.63
2017-12-21T07:47:00.403Z,11.30
2017-12-21T07:49:27.919Z,12.83
2017-12-21T07:51:56.179Z,11.57
2017-12-21T07:54:23.718Z,12.23
2017-12-21T07:56:51.224Z,12.60
2017-12-21T07:59:18.728Z,13.00
2017-12-21T08:01:47.066Z,13.83
2017-12-21T08:04:14.587Z,13.30
2017-12-21T08:06:42.192Z,12.57
2017-12-21T08:09:09.691Z,17.10
2017-12-21T08:11:37.191Z,13.87
2017-12-21T08:14:05.468Z,12.77
2017-12-21T08:16:32.972Z,12.03
2017-12-21T08:19:01.287Z,11.67
2017-12-21T08:21:28.815Z,11.47
2017-12-21T08:23:57.083Z,10.83
2017-12-21T08:26:24.611Z,10.00
2017-12-21T08:28:52.218Z,9.87
2017-12-21T08:31:19.743Z,10.20
2017-12-21T08:33:47.243Z,10.17
2017-12-21T08:36:14.739Z,9.57
2017-12-21T08:38:42.262Z,8.53
2017-12-21T08:41:09.773Z,8.73
2017-12-21T08:43:37.287Z,8.87
2017-12-21T08:46:04.784Z,9.33
2017-12-21T08:48:32.416Z,8.77
2017-12-21T08:50:59.939Z,7.70
2017-12-21T08:53:27.471Z,7.97
2017-12-21T08:55:55.020Z,8.87
2017-12-21T08:58:23.279Z,8.30
2017-12-21T09:00:50.773Z,8.20
2017-12-21T09:03:18.295Z,11.97
2017-12-21T09:05:45.825Z,13.63
2017-12-21T09:08:13.375Z,11.63
2017-12-21T09:10:40.940Z,14.17
2017-12-21T09:13:08.434Z,13.80
2017-12-21T09:15:35.959Z,12.27
2017-12-21T09:18:03.457Z,9.93
2017-12-21T09:20:31.019Z,11.90
2017-12-21T09:22:58.507Z,14.10
2017-12-21T09:25:26.010Z,11.77
2017-12-21T09:27:53.534Z,10.17
2017-12-21T09:30:21.040Z,10.37
2017-12-21T09:32:49.371Z,9.23
2017-12-21T09:35:22.069Z,9.33
2017-12-21T09:37:49.603Z,8.70
2017-12-21T09:40:17.119Z,7.73
2017-12-21T09:42:44.619Z,8.87
2017-12-21T09:45:12.919Z,9.17
2017-12-21T09:47:40.419Z,9.53
2017-12-21T09:50:07.951Z,8.87
2017-12-21T09:52:37.214Z,10.23
2017-12-21T09:55:04.711Z,8.97
2017-12-21T09:57:32.243Z,10.80
2017-12-21T09:59:59.747Z,9.97
2017-12-21T10:02:27.270Z,10.57
2017-12-21T10:04:54.769Z,10.20
2017-12-21T10:07:22.279Z,10.60
2017-12-21T10:09:49.795Z,10.03
2017-12-21T10:12:17.295Z,10.57
2017-12-21T10:14:44.843Z,10.00
2017-12-21T10:17:12.341Z,11.47
2017-12-21T10:19:39.842Z,10.10
2017-12-21T10:22:07.364Z,12.60
2017-12-21T10:24:34.863Z,12.43
2017-12-21T10:27:03.150Z,12.10
2017-12-21T10:29:31.443Z,12.50
2017-12-21T10:31:59.712Z,11.77
2017-12-21T10:34:28.031Z,9.97
2017-12-21T10:36:56.297Z,13.17
2017-12-21T10:39:23.861Z,12.10
2017-12-21T10:41:51.376Z,11.47
2017-12-21T10:44:18.887Z,11.13
2017-12-21T10:46:46.401Z,11.13
2017-12-21T10:49:15.707Z,10.23
2017-12-21T10:51:43.990Z,11.10
2017-12-21T10:54:12.258Z,9.87
2017-12-21T10:56:39.977Z,10.57
2017-12-21T10:59:07.492Z,9.80
2017-12-21T11:01:34.988Z,10.70
2017-12-21T11:04:02.510Z,10.53
2017-12-21T11:06:30.027Z,10.13
2017-12-21T11:08:57.540Z,11.07
2017-12-21T11:11:25.055Z,10.80
2017-12-21T11:13:52.560Z,9.47
2017-12-21T11:16:20.104Z,10.57
2017-12-21T11:18:47.599Z,11.27
2017-12-21T11:21:15.094Z,11.00
2017-12-21T11:23:42.615Z,11.97
2017-12-21T11:26:10.132Z,10.80
2017-12-21T11:28:37.687Z,11.73
2017-12-21T11:31:05.954Z,12.37
2017-12-21T11:33:33.456Z,11.90
2017-12-21T11:36:01.003Z,13.23
2017-12-21T11:38:29.268Z,13.73
2017-12-21T11:40:56.808Z,12.77
2017-12-21T11:43:24.307Z,15.60
2017-12-21T11:45:51.807Z,14.43
2017-12-21T11:48:19.331Z,16.07
2017-12-21T11:50:46.837Z,16.47
2017-12-21T11:53:14.388Z,15.77
2017-12-21T11:55:41.887Z,14.27
2017-12-21T11:58:09.383Z,16.17
2017-12-21T12:00:36.899Z,16.40
2017-12-21T12:03:04.398Z,16.93
2017-12-21T12:05:32.692Z,17.17
2017-12-21T12:08:00.960Z,17.17
2017-12-21T12:10:28.451Z,18.57
2017-12-21T12:12:55.968Z,19.30
2017-12-21T12:15:23.645Z,18.20
2017-12-21T12:17:51.405Z,18.63
2017-12-21T12:20:19.038Z,20.33
2017-12-21T12:22:46.525Z,19.30
2017-12-21T12:25:14.170Z,20.73
2017-12-21T12:27:41.686Z,20.30
2017-12-21T12:30:09.237Z,23.07
2017-12-21T12:32:38.481Z,26.40
2017-12-21T12:35:07.958Z,25.00
2017-12-21T12:37:36.560Z,24.07
2017-12-21T12:40:04.484Z,17.60
2017-12-21T12:42:32.438Z,18.03
2017-12-21T12:45:00.111Z,18.03
2017-12-21T12:47:28.001Z,15.83
2017-12-21T12:49:57.323Z,16.07
2017-12-21T12:52:25.854Z,14.20
2017-12-21T12:54:53.439Z,14.57
2017-12-21T12:57:20.985Z,14.23
2017-12-21T12:59:48.535Z,14.37
2017-12-21T13:02:16.071Z,13.80
2017-12-21T13:04:44.370Z,12.57
2017-12-21T13:07:11.917Z,11.97
2017-12-21T13:09:39.437Z,11.60
2017-12-21T13:12:06.957Z,10.47
2017-12-21T13:14:34.661Z,12.07
2017-12-21T13:17:02.237Z,11.93
2017-12-21T13:19:30.147Z,9.67
2017-12-21T13:21:58.137Z,12.93
2017-12-21T13:24:25.879Z,10.73
2017-12-21T13:26:53.461Z,13.57
2017-12-21T13:29:21.168Z,13.53
2017-12-21T13:31:49.608Z,15.40
2017-12-21T13:34:17.450Z,12.87
2017-12-21T13:36:45.013Z,13.73
2017-12-21T13:39:12.558Z,12.30
2017-12-21T13:41:40.847Z,14.20
2017-12-21T13:44:08.477Z,12.20
2017-12-21T13:46:36.767Z,10.93
2017-12-21T13:49:05.478Z,10.27
2017-12-21T13:51:33.106Z,10.10
2017-12-21T13:54:01.507Z,11.50
2017-12-21T13:56:29.502Z,11.47
2017-12-21T13:58:57.458Z,11.90
2017-12-21T14:01:26.121Z,11.77
2017-12-21T14:03:53.725Z,11.10
2017-12-21T14:06:21.246Z,12.83
2017-12-21T14:08:48.786Z,12.47
2017-12-21T14:11:17.081Z,13.23
2017-12-21T14:13:44.610Z,13.73
2017-12-21T14:16:12.159Z,13.13
2017-12-21T14:18:40.090Z,13.33
2017-12-21T14:21:08.265Z,14.00
2017-12-21T14:23:36.038Z,13.40
2017-12-21T14:26:03.974Z,14.40
2017-12-21T14:28:32.256Z,13.43
2017-12-21T14:31:00.138Z,13.57
2017-12-21T14:33:28.145Z,12.73
2017-12-21T14:35:55.777Z,14.13
2017-12-21T14:38:23.365Z,14.83
2017-12-21T14:40:50.889Z,14.37
2017-12-21T14:43:18.439Z,14.27
2017-12-21T14:45:46.111Z,13.97
2017-12-21T14:48:13.624Z,13.33
2017-12-21T14:50:41.185Z,14.13
2017-12-21T14:53:08.794Z,13.93
2017-12-21T14:55:36.325Z,15.77
2017-12-21T14:58:03.994Z,14.93
2017-12-21T15:00:31.853Z,14.77
2017-12-21T15:03:00.576Z,14.20
2017-12-21T15:05:28.577Z,14.03
2017-12-21T15:07:58.564Z,15.57
2017-12-21T15:10:26.494Z,15.60
2017-12-21T15:12:54.888Z,13.97
2017-12-21T15:15:22.781Z,15.97
2017-12-21T15:17:50.347Z,14.40
2017-12-21T15:20:17.902Z,15.00
2017-12-21T15:22:45.568Z,14.50
2017-12-21T15:25:13.106Z,15.43
2017-12-21T15:27:40.643Z,15.27
2017-12-21T15:30:09.137Z,17.07
2017-12-21T15:32:37.654Z,15.93
2017-12-21T15:35:05.439Z,15.47
2017-12-21T15:37:33.084Z,17.30
2017-12-21T15:40:00.598Z,16.20
2017-12-21T15:42:28.177Z,16.60
2017-12-21T15:44:56.468Z,18.17
2017-12-21T15:47:24.290Z,18.40
2017-12-21T15:49:53.785Z,17.07
2017-12-21T15:52:21.318Z,16.67
2017-12-21T15:54:49.372Z,17.07
2017-12-21T15:57:17.596Z,18.17
2017-12-21T15:59:45.256Z,19.50
2017-12-21T16:02:14.517Z,18.83
2017-12-21T16:04:42.956Z,18.67
2017-12-21T16:07:11.765Z,16.87
2017-12-21T16:09:41.199Z,17.57
2017-12-21T16:12:08.964Z,17.00
2017-12-21T16:14:36.637Z,17.13
2017-12-21T16:17:04.158Z,17.53
2017-12-21T16:19:32.470Z,17.57
2017-12-21T16:22:00.000Z,15.20
2017-12-21T16:24:27.572Z,13.87
2017-12-21T16:26:55.488Z,14.43
2017-12-21T16:29:23.039Z,15.43
2017-12-21T16:31:50.649Z,13.60
2017-12-21T16:34:19.462Z,14.70
2017-12-21T16:36:47.741Z,14.47
2017-12-21T16:39:16.004Z,13.73
2017-12-21T16:41:44.600Z,14.40
2017-12-21T16:44:14.004Z,15.67
2017-12-21T16:46:42.486Z,16.30
2017-12-21T16:49:11.069Z,16.07
2017-12-21T16:51:41.913Z,15.07
2017-12-21T16:54:11.118Z,14.00
2017-12-21T16:56:41.431Z,14.60
2017-12-21T16:59:10.482Z,14.30
2017-12-21T17:01:39.930Z,13.10
2017-12-21T17:04:09.743Z,14.23
2017-12-21T17:06:37.713Z,11.80
2017-12-21T17:09:07.553Z,13.10
2017-12-21T17:11:35.228Z,11.77
2017-12-21T17:14:03.369Z,12.53
2017-12-21T17:16:31.925Z,13.87
2017-12-21T17:18:59.485Z,11.90
2017-12-21T17:21:27.015Z,11.40
2017-12-21T17:23:54.849Z,10.73
2017-12-21T17:26:22.414Z,10.50
2017-12-21T17:28:50.912Z,10.40
2017-12-21T17:31:19.360Z,10.27
2017-12-21T17:33:48.347Z,10.63
2017-12-21T17:36:17.312Z,11.20
2017-12-21T17:38:45.917Z,11.23
2017-12-21T17:41:15.719Z,10.23
2017-12-21T17:43:44.639Z,12.13
2017-12-21T17:46:13.385Z,11.20
2017-12-21T17:48:42.029Z,12.00
2017-12-21T17:51:10.751Z,12.43
2017-12-21T17:53:40.835Z,13.30
2017-12-21T17:56:10.830Z,12.27
2017-12-21T17:58:40.316Z,13.13
2017-12-21T18:01:09.892Z,12.60
2017-12-21T18:03:41.860Z,11.93
2017-12-21T18:06:11.237Z,12.60
2017-12-21T18:08:40.617Z,13.40
2017-12-21T18:11:10.383Z,12.67
2017-12-21T18:13:40.991Z,12.53
2017-12-21T18:16:12.541Z,13.40
2017-12-21T18:18:42.269Z,20.37
2017-12-21T18:21:12.178Z,18.80
2017-12-21T18:23:42.573Z,19.57
2017-12-21T18:26:12.723Z,24.40
2017-12-21T18:28:41.788Z,28.47
2017-12-21T18:31:11.607Z,20.83
2017-12-21T18:33:44.945Z,16.83
2017-12-21T18:36:14.289Z,14.17
2017-12-21T18:38:44.150Z,14.80
2017-12-21T18:41:11.981Z,15.30
2017-12-21T18:43:41.896Z,17.27
2017-12-21T18:46:11.674Z,15.30
2017-12-21T18:48:42.920Z,14.20
2017-12-21T18:51:11.745Z,15.60
2017-12-21T18:53:40.497Z,14.00
2017-12-21T18:56:09.609Z,15.73
2017-12-21T18:58:40.847Z,13.43
2017-12-21T19:01:09.226Z,13.53
2017-12-21T19:03:40.522Z,15.07
2017-12-21T19:06:10.881Z,15.00
2017-12-21T19:08:40.303Z,14.23
2017-12-21T19:11:09.807Z,15.10
2017-12-21T19:13:38.707Z,14.23
2017-12-21T19:16:06.339Z,14.23
2017-12-21T19:18:34.554Z,13.67
2017-12-21T19:21:03.224Z,15.90
2017-12-21T19:23:31.577Z,15.83
2017-12-21T19:25:59.853Z,14.07
2017-12-21T19:28:28.174Z,13.40
2017-12-21T19:30:56.968Z,13.47
2017-12-21T19:33:24.528Z,15.43
2017-12-21T19:35:53.016Z,15.77
2017-12-21T19:38:21.391Z,15.13
2017-12-21T19:40:49.525Z,15.00
2017-12-21T19:43:17.883Z,16.37
2017-12-21T19:45:47.481Z,16.33
2017-12-21T19:48:16.766Z,15.23
2017-12-21T19:50:45.488Z,14.77
2017-12-21T19:53:14.620Z,14.30
2017-12-21T19:55:43.639Z,14.27
2017-12-21T19:58:11.493Z,14.23
2017-12-21T20:00:41.602Z,14.00
2017-12-21T20:03:10.875Z,13.53
2017-12-21T20:05:38.773Z,13.37
2017-12-21T20:08:11.082Z,14.60
2017-12-21T20:10:40.543Z,13.43
2017-12-21T20:13:08.626Z,14.47
2017-12-21T20:15:37.935Z,14.00
2017-12-21T20:18:05.782Z,14.00
2017-12-21T20:20:33.337Z,15.40
2017-12-21T20:23:00.933Z,14.57
2017-12-21T20:25:28.505Z,14.93
2017-12-21T20:27:56.025Z,15.30
2017-12-21T20:30:24.322Z,14.53
2017-12-21T20:32:52.095Z,13.77
2017-12-21T20:35:20.343Z,15.93
2017-12-21T20:37:48.931Z,15.10
2017-12-21T20:40:17.142Z,14.97
2017-12-21T20:42:45.683Z,14.73
2017-12-21T20:45:14.272Z,15.43
2017-12-21T20:47:43.104Z,14.20
2017-12-21T20:50:13.109Z,13.90
2017-12-21T20:52:41.153Z,14.53
2017-12-21T20:55:09.501Z,13.70
2017-12-21T20:57:38.119Z,12.73
2017-12-21T21:00:05.910Z,12.40
2017-12-21T21:02:33.440Z,13.23
2017-12-21T21:05:00.998Z,12.70
2017-12-21T21:07:29.490Z,13.27
2017-12-21T21:09:57.013Z,13.47
2017-12-21T21:12:25.350Z,10.43
2017-12-21T21:14:52.877Z,10.40
2017-12-21T21:17:20.397Z,9.53
2017-12-21T21:19:49.327Z,9.33
2017-12-21T21:22:17.713Z,9.63
2017-12-21T21:24:45.863Z,8.47
2017-12-21T21:27:14.322Z,8.30
2017-12-21T21:29:43.673Z,7.40
2017-12-21T21:32:13.380Z,7.57
2017-12-21T21:34:42.056Z,7.73
2017-12-21T21:37:12.721Z,6.30
2017-12-21T21:39:41.634Z,6.57
2017-12-21T21:42:10.339Z,6.37
2017-12-21T21:44:41.169Z,6.40
2017-12-21T21:47:13.759Z,6.87
2017-12-21T21:49:44.915Z,6.43
2017-12-21T21:52:15.220Z,5.90
2017-12-21T21:54:45.786Z,5.70
2017-12-21T21:57:16.662Z,5.97
2017-12-21T21:59:45.530Z,5.90
2017-12-21T22:02:13.564Z,5.70
2017-12-21T22:04:41.671Z,5.77
2017-12-21T22:07:10.680Z,6.10
2017-12-21T22:09:39.161Z,5.70
2017-12-21T22:12:08.663Z,5.40
2017-12-21T22:14:36.522Z,4.93
2017-12-21T22:17:04.627Z,5.10
2017-12-21T22:19:33.486Z,4.87
2017-12-21T22:22:01.867Z,5.40
2017-12-21T22:24:29.459Z,5.63
2017-12-21T22:26:56.977Z,5.73
2017-12-21T22:29:24.499Z,5.30
2017-12-21T22:31:52.801Z,6.93
2017-12-21T22:34:21.413Z,4.97
2017-12-21T22:36:49.941Z,4.60
2017-12-21T22:39:18.473Z,4.50
2017-12-21T22:41:46.170Z,4.00
2017-12-21T22:44:14.678Z,4.53
2017-12-21T22:46:44.637Z,4.67
2017-12-21T22:49:15.210Z,4.60
2017-12-21T22:51:46.243Z,4.43
2017-12-21T22:54:16.396Z,5.33
2017-12-21T22:56:45.290Z,4.73
2017-12-21T22:59:13.600Z,4.23
2017-12-21T23:01:41.980Z,5.10
2017-12-21T23:04:10.294Z,4.30
2017-12-21T23:06:39.643Z,4.07
2017-12-21T23:09:07.173Z,4.83
2017-12-21T23:11:35.476Z,4.37
2017-12-21T23:14:03.785Z,4.00
2017-12-21T23:16:31.293Z,4.60
2017-12-21T23:18:59.593Z,4.00
2017-12-21T23:21:27.127Z,4.37
2017-12-21T23:23:55.420Z,4.27
2017-12-21T23:26:23.743Z,4.40
2017-12-21T23:28:51.347Z,4.33
2017-12-21T23:31:19.848Z,4.47
2017-12-21T23:33:47.597Z,4.80
2017-12-21T23:36:15.220Z,4.27
2017-12-21T23:38:44.133Z,5.47
2017-12-21T23:41:11.984Z,4.97
2017-12-21T23:43:41.257Z,4.70
2017-12-21T23:46:10.411Z,4.97
2017-12-21T23:48:38.052Z,5.30
2017-12-21T23:51:05.693Z,6.30
2017-12-21T23:53:33.206Z,4.60
2017-12-21T23:56:01.606Z,4.80
2017-12-21T23:58:29.113Z,5.80
